createdAt,value
2023-08-08T00:00:23.083Z,1.80
2023-08-08T00:02:49.666Z,1.70
2023-08-08T00:05:16.979Z,1.80
2023-08-08T00:07:43.606Z,2.70
2023-08-08T00:10:10.531Z,1.43
2023-08-08T00:12:37.074Z,2.30
2023-08-08T00:15:03.749Z,2.03
2023-08-08T00:17:30.412Z,1.70
2023-08-08T00:19:57.217Z,1.70
2023-08-08T00:22:23.801Z,2.40
2023-08-08T00:24:50.293Z,2.30
2023-08-08T00:27:16.946Z,2.13
2023-08-08T00:29:43.876Z,1.77
2023-08-08T00:32:10.390Z,1.67
2023-08-08T00:34:37.067Z,1.80
2023-08-08T00:37:03.742Z,1.90
2023-08-08T00:39:30.202Z,2.13
2023-08-08T00:41:57.240Z,2.27
2023-08-08T00:44:24.004Z,2.00
2023-08-08T00:46:50.618Z,1.97
2023-08-08T00:49:17.315Z,2.30
2023-08-08T00:51:43.919Z,2.80
2023-08-08T00:54:11.242Z,2.17
2023-08-08T00:56:37.843Z,2.03
2023-08-08T00:59:04.575Z,2.10
2023-08-08T01:01:31.100Z,2.13
2023-08-08T01:03:59.200Z,2.13
2023-08-08T01:06:36.473Z,2.57
2023-08-08T01:09:08.595Z,2.00
2023-08-08T01:11:36.643Z,1.70
2023-08-08T01:14:04.103Z,1.87
2023-08-08T01:16:31.233Z,2.00
2023-08-08T01:18:58.281Z,2.10
2023-08-08T01:21:27.079Z,1.70
2023-08-08T01:23:56.646Z,2.10
2023-08-08T01:26:23.383Z,2.10
2023-08-08T01:28:53.955Z,2.20
2023-08-08T01:31:20.757Z,2.70
2023-08-08T01:33:47.679Z,2.70
2023-08-08T01:36:24.803Z,2.00
2023-08-08T01:38:53.200Z,2.17
2023-08-08T01:41:20.061Z,1.90
2023-08-08T01:43:46.836Z,1.77
2023-08-08T01:46:13.637Z,1.53
2023-08-08T01:48:40.192Z,1.90
2023-08-08T01:51:06.768Z,2.30
2023-08-08T01:53:33.365Z,2.30
2023-08-08T01:55:59.945Z,1.70
2023-08-08T01:58:26.728Z,2.00
2023-08-08T02:00:53.252Z,2.43
2023-08-08T02:03:19.903Z,1.47
2023-08-08T02:05:46.584Z,1.80
2023-08-08T02:08:13.964Z,2.40
2023-08-08T02:10:40.550Z,1.80
2023-08-08T02:13:07.087Z,2.03
2023-08-08T02:15:33.591Z,2.30
2023-08-08T02:18:00.953Z,2.20
2023-08-08T02:20:27.594Z,2.17
2023-08-08T02:22:54.175Z,2.10
2023-08-08T02:25:20.738Z,2.23
2023-08-08T02:27:47.239Z,2.17
2023-08-08T02:30:14.403Z,1.73
2023-08-08T02:32:40.955Z,2.00
2023-08-08T02:35:08.009Z,1.67
2023-08-08T02:37:35.340Z,2.27
2023-08-08T02:40:02.208Z,2.47
2023-08-08T02:42:28.730Z,2.17
2023-08-08T02:44:55.232Z,1.93
2023-08-08T02:47:22.028Z,2.10
2023-08-08T02:49:48.582Z,2.13
2023-08-08T02:52:15.170Z,2.23
2023-08-08T02:54:41.676Z,2.17
2023-08-08T02:57:08.198Z,2.27
2023-08-08T02:59:35.323Z,2.23
2023-08-08T03:02:02.247Z,2.00
2023-08-08T03:04:29.174Z,2.07
2023-08-08T03:06:55.769Z,1.80
2023-08-08T03:09:22.538Z,2.20
2023-08-08T03:11:49.071Z,2.20
2023-08-08T03:14:15.650Z,2.10
2023-08-08T03:16:42.403Z,2.50
2023-08-08T03:19:09.183Z,2.00
2023-08-08T03:21:36.753Z,2.00
2023-08-08T03:24:03.508Z,2.27
2023-08-08T03:26:30.182Z,2.00
2023-08-08T03:28:56.864Z,2.57
2023-08-08T03:31:23.612Z,2.00
2023-08-08T03:33:50.221Z,1.97
2023-08-08T03:36:17.039Z,2.30
2023-08-08T03:38:47.139Z,2.23
2023-08-08T03:41:14.716Z,2.20
2023-08-08T03:43:41.726Z,2.20
2023-08-08T03:46:08.525Z,2.67
2023-08-08T03:48:38.204Z,1.63
2023-08-08T03:51:04.920Z,1.90
2023-08-08T03:53:31.551Z,1.80
2023-08-08T03:55:58.277Z,2.30
2023-08-08T03:58:24.856Z,2.20
2023-08-08T04:00:52.401Z,2.50
2023-08-08T04:03:19.512Z,1.70
2023-08-08T04:05:47.923Z,2.00
2023-08-08T04:08:15.640Z,1.90
2023-08-08T04:10:42.701Z,2.50
2023-08-08T04:13:09.366Z,2.43
2023-08-08T04:15:36.818Z,2.00
2023-08-08T04:18:03.533Z,2.33
2023-08-08T04:20:30.128Z,2.10
2023-08-08T04:22:56.826Z,1.83
2023-08-08T04:25:23.350Z,2.00
2023-08-08T04:27:49.870Z,2.00
2023-08-08T04:30:16.681Z,2.40
2023-08-08T04:32:43.406Z,2.20
2023-08-08T04:35:09.965Z,1.90
2023-08-08T04:37:36.740Z,2.10
2023-08-08T04:40:03.744Z,2.00
2023-08-08T04:42:30.975Z,1.80
2023-08-08T04:44:57.614Z,2.20
2023-08-08T04:47:24.240Z,1.77
2023-08-08T04:49:50.906Z,2.10
2023-08-08T04:52:17.461Z,1.60
2023-08-08T04:54:45.222Z,1.90
2023-08-08T04:57:11.754Z,2.70
2023-08-08T04:59:38.325Z,1.80
2023-08-08T05:02:05.090Z,1.70
2023-08-08T05:04:31.910Z,2.10
2023-08-08T05:06:58.827Z,2.03
2023-08-08T05:09:27.571Z,2.00
2023-08-08T05:11:54.326Z,1.63
2023-08-08T05:14:20.992Z,2.00
2023-08-08T05:16:47.617Z,2.00
2023-08-08T05:19:14.123Z,1.90
2023-08-08T05:21:40.731Z,2.03
2023-08-08T05:24:07.367Z,1.93
2023-08-08T05:26:33.901Z,1.93
2023-08-08T05:29:00.435Z,1.83
2023-08-08T05:31:26.956Z,1.73
2023-08-08T05:33:53.831Z,1.83
2023-08-08T05:36:20.369Z,2.17
2023-08-08T05:38:46.972Z,1.97
2023-08-08T05:41:13.522Z,2.20
2023-08-08T05:43:40.014Z,1.93
2023-08-08T05:46:06.735Z,1.80
2023-08-08T05:48:33.324Z,1.93
2023-08-08T05:51:00.967Z,1.93
2023-08-08T05:53:27.693Z,2.10
2023-08-08T05:55:54.204Z,2.27
2023-08-08T05:58:20.707Z,2.40
2023-08-08T06:00:47.832Z,2.13
2023-08-08T06:03:14.507Z,1.73
2023-08-08T06:05:41.047Z,2.13
2023-08-08T06:08:12.507Z,2.07
2023-08-08T06:10:39.014Z,1.93
2023-08-08T06:13:05.718Z,1.80
2023-08-08T06:15:32.344Z,1.80
2023-08-08T06:17:58.996Z,1.80
2023-08-08T06:20:25.770Z,2.00
2023-08-08T06:22:52.990Z,1.87
2023-08-08T06:25:19.815Z,1.80
2023-08-08T06:27:47.908Z,2.07
2023-08-08T06:30:15.031Z,2.53
2023-08-08T06:32:41.590Z,2.00
2023-08-08T06:35:09.964Z,2.07
2023-08-08T06:37:37.210Z,2.00
2023-08-08T06:40:04.112Z,2.37
2023-08-08T06:42:30.681Z,2.07
2023-08-08T06:44:57.699Z,1.97
2023-08-08T06:47:24.299Z,1.63
2023-08-08T06:49:51.069Z,2.20
2023-08-08T06:52:17.689Z,2.73
2023-08-08T06:54:44.191Z,1.80
2023-08-08T06:57:10.708Z,1.77
2023-08-08T06:59:37.224Z,1.80
2023-08-08T07:02:04.293Z,1.80
2023-08-08T07:04:31.478Z,1.80
2023-08-08T07:06:58.012Z,1.77
2023-08-08T07:09:25.629Z,2.40
2023-08-08T07:11:52.210Z,2.13
2023-08-08T07:14:18.806Z,1.50
2023-08-08T07:16:45.417Z,1.90
2023-08-08T07:19:12.922Z,1.60
2023-08-08T07:21:39.494Z,1.93
2023-08-08T07:24:06.039Z,2.13
2023-08-08T07:26:32.761Z,1.90
2023-08-08T07:28:59.424Z,1.70
2023-08-08T07:31:26.096Z,2.07
2023-08-08T07:33:52.776Z,1.73
2023-08-08T07:36:19.367Z,2.10
2023-08-08T07:38:45.871Z,2.00
2023-08-08T07:41:12.513Z,2.15
2023-08-08T07:43:39.041Z,1.70
2023-08-08T07:46:05.630Z,1.83
2023-08-08T07:48:32.583Z,2.00
2023-08-08T07:50:59.156Z,1.70
2023-08-08T07:53:25.717Z,1.90
2023-08-08T07:55:52.293Z,1.90
2023-08-08T07:58:18.893Z,1.97
2023-08-08T08:00:45.781Z,2.23
2023-08-08T08:03:12.464Z,1.83
2023-08-08T08:05:39.053Z,1.63
2023-08-08T08:08:05.874Z,2.00
2023-08-08T08:10:32.405Z,1.70
2023-08-08T08:12:59.482Z,1.90
2023-08-08T08:15:26.749Z,1.70
2023-08-08T08:17:53.581Z,1.73
2023-08-08T08:20:21.714Z,2.37
2023-08-08T08:22:48.400Z,1.67
2023-08-08T08:25:15.988Z,1.90
2023-08-08T08:27:42.856Z,2.03
2023-08-08T08:30:11.340Z,2.20
2023-08-08T08:32:40.309Z,2.13
2023-08-08T08:35:07.819Z,1.60
2023-08-08T08:37:35.292Z,1.53
2023-08-08T08:40:02.139Z,1.50
2023-08-08T08:42:29.438Z,1.83
2023-08-08T08:44:58.774Z,1.70
2023-08-08T08:47:26.418Z,1.60
2023-08-08T08:49:53.552Z,1.67
2023-08-08T08:52:20.265Z,1.80
2023-08-08T08:54:46.975Z,1.73
2023-08-08T08:57:13.568Z,1.47
2023-08-08T08:59:40.085Z,1.87
2023-08-08T09:02:07.362Z,2.07
2023-08-08T09:04:36.351Z,1.60
2023-08-08T09:07:03.469Z,1.80
2023-08-08T09:09:33.330Z,1.70
2023-08-08T09:12:00.355Z,2.37
2023-08-08T09:14:28.455Z,1.40
2023-08-08T09:16:55.496Z,1.47
2023-08-08T09:19:24.708Z,1.30
2023-08-08T09:21:52.778Z,1.57
2023-08-08T09:24:19.785Z,1.37
2023-08-08T09:26:46.404Z,1.60
2023-08-08T09:29:15.521Z,1.20
2023-08-08T09:31:42.212Z,1.50
2023-08-08T09:34:08.852Z,1.20
2023-08-08T09:36:37.925Z,1.30
2023-08-08T09:39:05.886Z,1.40
2023-08-08T09:41:32.680Z,1.57
2023-08-08T09:43:59.902Z,1.53
2023-08-08T09:46:26.644Z,1.40
2023-08-08T09:48:53.693Z,1.67
2023-08-08T09:51:21.618Z,1.50
2023-08-08T09:53:48.730Z,1.33
2023-08-08T09:56:15.330Z,1.40
2023-08-08T09:58:43.704Z,1.50
2023-08-08T10:01:11.718Z,1.20
2023-08-08T10:03:39.165Z,1.10
2023-08-08T10:06:06.745Z,1.87
2023-08-08T10:08:33.285Z,1.40
2023-08-08T10:11:00.255Z,1.30
2023-08-08T10:13:27.985Z,1.53
2023-08-08T10:15:55.764Z,1.53
2023-08-08T10:18:23.287Z,1.23
2023-08-08T10:20:50.795Z,1.50
2023-08-08T10:23:20.910Z,1.40
2023-08-08T10:25:49.838Z,1.40
2023-08-08T10:28:27.111Z,1.20
2023-08-08T10:30:59.815Z,1.67
2023-08-08T10:33:41.577Z,1.50
2023-08-08T10:36:09.243Z,2.00
2023-08-08T10:38:47.939Z,1.10
2023-08-08T10:41:16.772Z,1.23
2023-08-08T10:43:54.897Z,1.40
2023-08-08T10:46:39.393Z,1.40
2023-08-08T10:49:06.682Z,1.33
2023-08-08T10:51:38.918Z,1.23
2023-08-08T10:54:07.500Z,1.00
2023-08-08T10:56:37.465Z,1.07
2023-08-08T10:59:17.680Z,1.30
2023-08-08T11:01:46.746Z,1.20
2023-08-08T11:04:13.376Z,1.00
2023-08-08T11:06:40.738Z,1.40
2023-08-08T11:09:08.039Z,1.27
2023-08-08T11:11:44.850Z,1.20
2023-08-08T11:14:19.137Z,1.40
2023-08-08T11:16:46.805Z,1.23
2023-08-08T11:19:13.934Z,1.10
2023-08-08T11:21:44.567Z,1.03
2023-08-08T11:24:12.382Z,1.33
2023-08-08T11:26:40.733Z,1.73
2023-08-08T11:29:07.593Z,1.10
2023-08-08T11:31:37.489Z,1.00
2023-08-08T11:34:05.589Z,1.00
2023-08-08T11:36:35.263Z,1.00
2023-08-08T11:39:08.692Z,1.33
2023-08-08T11:41:37.022Z,1.23
2023-08-08T11:44:05.054Z,1.00
2023-08-08T11:46:35.508Z,1.00
2023-08-08T11:49:08.242Z,1.20
2023-08-08T11:51:36.663Z,0.73
2023-08-08T11:54:05.209Z,1.10
2023-08-08T11:56:35.722Z,0.83
2023-08-08T11:59:03.230Z,0.80
2023-08-08T12:01:32.056Z,0.90
2023-08-08T12:03:58.867Z,0.80
2023-08-08T12:06:30.073Z,0.87
2023-08-08T12:08:56.966Z,1.10
2023-08-08T12:11:26.240Z,0.98
2023-08-08T12:14:00.482Z,0.88
2023-08-08T12:16:32.233Z,0.98
2023-08-08T12:19:03.748Z,1.07
2023-08-08T12:21:30.574Z,0.80
2023-08-08T12:23:57.269Z,1.00
2023-08-08T12:26:24.017Z,1.20
2023-08-08T12:28:52.019Z,0.90
2023-08-08T12:31:18.640Z,1.00
2023-08-08T12:33:46.774Z,0.90
2023-08-08T12:36:13.621Z,0.77
2023-08-08T12:38:41.482Z,0.80
2023-08-08T12:41:08.254Z,0.87
2023-08-08T12:43:36.734Z,0.70
2023-08-08T12:46:03.295Z,0.87
2023-08-08T12:48:29.973Z,0.90
2023-08-08T12:50:56.670Z,1.13
2023-08-08T12:53:23.200Z,0.80
2023-08-08T12:55:49.857Z,0.67
2023-08-08T12:58:16.440Z,1.00
2023-08-08T13:00:43.004Z,0.93
2023-08-08T13:03:10.511Z,1.03
2023-08-08T13:05:37.918Z,1.10
2023-08-08T13:08:04.806Z,0.80
2023-08-08T13:10:31.849Z,1.10
2023-08-08T13:12:58.691Z,0.87
2023-08-08T13:15:25.408Z,1.00
2023-08-08T13:17:52.014Z,0.83
2023-08-08T13:20:18.871Z,1.10
2023-08-08T13:22:45.554Z,0.90
2023-08-08T13:25:12.357Z,1.03
2023-08-08T13:27:39.020Z,0.97
2023-08-08T13:30:06.690Z,1.00
2023-08-08T13:32:33.322Z,1.17
2023-08-08T13:35:00.260Z,0.60
2023-08-08T13:37:26.803Z,1.53
2023-08-08T13:39:53.477Z,0.80
2023-08-08T13:42:19.967Z,1.17
2023-08-08T13:44:46.494Z,0.90
2023-08-08T13:47:13.153Z,0.90
2023-08-08T13:49:39.848Z,1.10
2023-08-08T13:52:06.768Z,1.07
2023-08-08T13:54:33.288Z,1.00
2023-08-08T13:56:59.885Z,0.80
2023-08-08T13:59:27.769Z,1.10
2023-08-08T14:01:54.503Z,0.90
2023-08-08T14:04:21.057Z,1.00
2023-08-08T14:06:47.759Z,1.00
2023-08-08T14:09:15.337Z,0.70
2023-08-08T14:11:43.113Z,1.10
2023-08-08T14:14:09.898Z,0.90
2023-08-08T14:16:36.981Z,1.63
2023-08-08T14:19:03.935Z,1.17
2023-08-08T14:21:30.494Z,1.27
2023-08-08T14:23:57.121Z,1.23
2023-08-08T14:26:23.739Z,1.20
2023-08-08T14:28:50.315Z,1.13
2023-08-08T14:31:17.148Z,1.17
2023-08-08T14:33:43.712Z,0.90
2023-08-08T14:36:10.616Z,1.23
2023-08-08T14:38:37.967Z,1.37
2023-08-08T14:41:05.220Z,0.90
2023-08-08T14:43:32.022Z,2.27
2023-08-08T14:45:58.868Z,1.70
2023-08-08T14:48:25.611Z,0.87
2023-08-08T14:50:52.446Z,1.00
2023-08-08T14:53:19.095Z,2.57
2023-08-08T14:55:46.188Z,1.30
2023-08-08T14:58:13.478Z,1.87
2023-08-08T15:00:40.170Z,1.97
2023-08-08T15:03:06.957Z,1.40
2023-08-08T15:05:33.720Z,0.90
2023-08-08T15:08:00.337Z,0.80
2023-08-08T15:10:26.948Z,1.17
2023-08-08T15:12:53.662Z,1.30
2023-08-08T15:15:24.171Z,1.80
2023-08-08T15:17:51.125Z,1.60
2023-08-08T15:20:17.894Z,1.30
2023-08-08T15:22:44.597Z,1.47
2023-08-08T15:25:11.153Z,1.50
2023-08-08T15:27:37.766Z,1.20
2023-08-08T15:30:05.471Z,1.00
2023-08-08T15:32:32.024Z,1.20
2023-08-08T15:34:59.129Z,1.20
2023-08-08T15:37:25.671Z,1.30
2023-08-08T15:39:52.180Z,1.33
2023-08-08T15:42:18.692Z,1.37
2023-08-08T15:44:45.214Z,0.87
2023-08-08T15:47:11.831Z,0.80
2023-08-08T15:49:38.389Z,0.90
2023-08-08T15:52:06.195Z,1.50
2023-08-08T15:54:32.701Z,1.10
2023-08-08T15:56:59.588Z,0.87
2023-08-08T15:59:26.591Z,0.70
2023-08-08T16:01:53.225Z,1.10
2023-08-08T16:04:19.892Z,0.87
2023-08-08T16:06:46.502Z,0.70
2023-08-08T16:09:13.177Z,1.03
2023-08-08T16:11:39.669Z,1.30
2023-08-08T16:14:06.846Z,1.00
2023-08-08T16:16:33.548Z,1.30
2023-08-08T16:19:00.421Z,1.40
2023-08-08T16:21:27.089Z,1.00
2023-08-08T16:23:53.642Z,1.07
2023-08-08T16:26:20.256Z,0.90
2023-08-08T16:28:46.864Z,1.30
2023-08-08T16:31:13.565Z,1.20
2023-08-08T16:33:40.098Z,1.00
2023-08-08T16:36:07.354Z,0.90
2023-08-08T16:38:33.807Z,0.90
2023-08-08T16:41:00.487Z,1.10
2023-08-08T16:43:32.169Z,1.03
2023-08-08T16:45:59.655Z,1.10
2023-08-08T16:48:26.800Z,0.70
2023-08-08T16:50:54.787Z,1.07
2023-08-08T16:53:21.634Z,1.00
2023-08-08T16:55:48.205Z,1.27
2023-08-08T16:58:15.493Z,1.00
2023-08-08T17:00:42.648Z,1.00
2023-08-08T17:03:10.001Z,1.10
2023-08-08T17:05:36.790Z,1.13
2023-08-08T17:08:03.540Z,1.10
2023-08-08T17:10:30.100Z,1.10
2023-08-08T17:12:56.686Z,1.17
2023-08-08T17:15:23.229Z,0.97
2023-08-08T17:17:50.229Z,1.03
2023-08-08T17:20:16.782Z,1.20
2023-08-08T17:22:43.469Z,1.53
2023-08-08T17:25:10.156Z,1.83
2023-08-08T17:27:37.019Z,0.97
2023-08-08T17:30:04.999Z,0.90
2023-08-08T17:32:31.552Z,1.03
2023-08-08T17:34:58.125Z,1.30
2023-08-08T17:37:24.681Z,1.27
2023-08-08T17:39:51.281Z,1.33
2023-08-08T17:42:17.920Z,1.40
2023-08-08T17:44:45.923Z,1.50
2023-08-08T17:47:12.585Z,1.47
2023-08-08T17:49:40.098Z,1.27
2023-08-08T17:52:07.015Z,1.23
2023-08-08T17:54:33.901Z,1.53
2023-08-08T17:57:01.072Z,1.50
2023-08-08T17:59:30.741Z,1.50
2023-08-08T18:01:57.974Z,1.63
2023-08-08T18:04:24.731Z,1.40
2023-08-08T18:06:52.351Z,1.40
2023-08-08T18:09:22.802Z,1.50
2023-08-08T18:11:49.719Z,1.37
2023-08-08T18:14:16.418Z,1.60
2023-08-08T18:16:43.277Z,1.40
2023-08-08T18:19:09.950Z,1.37
2023-08-08T18:21:40.231Z,1.47
2023-08-08T18:24:07.641Z,1.60
2023-08-08T18:26:35.244Z,1.50
2023-08-08T18:29:01.815Z,1.10
2023-08-08T18:31:28.410Z,1.37
2023-08-08T18:33:58.950Z,1.53
2023-08-08T18:36:25.904Z,1.70
2023-08-08T18:38:52.723Z,1.53
2023-08-08T18:41:19.693Z,1.40
2023-08-08T18:43:46.463Z,1.60
2023-08-08T18:46:13.685Z,1.47
2023-08-08T18:48:40.340Z,1.60
2023-08-08T18:51:06.929Z,1.30
2023-08-08T18:53:33.526Z,1.40
2023-08-08T18:56:00.040Z,1.53
2023-08-08T18:58:26.960Z,1.70
2023-08-08T19:00:53.561Z,1.50
2023-08-08T19:03:20.352Z,1.70
2023-08-08T19:05:46.952Z,1.30
2023-08-08T19:08:13.715Z,1.67
2023-08-08T19:10:40.434Z,1.80
2023-08-08T19:13:07.011Z,1.40
2023-08-08T19:15:35.483Z,1.40
2023-08-08T19:18:02.092Z,1.60
2023-08-08T19:20:28.713Z,1.90
2023-08-08T19:22:55.266Z,2.10
2023-08-08T19:25:22.915Z,1.80
2023-08-08T19:27:49.407Z,1.50
2023-08-08T19:30:15.943Z,1.53
2023-08-08T19:32:42.966Z,1.80
2023-08-08T19:35:09.494Z,1.83
2023-08-08T19:37:37.099Z,1.80
2023-08-08T19:40:04.088Z,1.70
2023-08-08T19:42:30.665Z,2.30
2023-08-08T19:44:58.119Z,2.20
2023-08-08T19:47:24.823Z,2.37
2023-08-08T19:49:51.370Z,2.40
2023-08-08T19:52:17.957Z,2.07
2023-08-08T19:54:44.427Z,2.43
2023-08-08T19:57:10.932Z,1.60
2023-08-08T19:59:37.460Z,1.97
2023-08-08T20:02:05.834Z,2.30
2023-08-08T20:04:32.460Z,2.20
2023-08-08T20:06:58.963Z,1.83
2023-08-08T20:09:25.824Z,1.93
2023-08-08T20:11:52.381Z,2.10
2023-08-08T20:14:19.049Z,2.00
2023-08-08T20:16:45.568Z,2.00
2023-08-08T20:19:12.627Z,2.00
2023-08-08T20:21:39.241Z,2.70
2023-08-08T20:24:08.580Z,2.43
2023-08-08T20:26:36.727Z,3.27
2023-08-08T20:29:03.269Z,2.00
2023-08-08T20:31:29.814Z,2.40
2023-08-08T20:33:57.564Z,2.80
2023-08-08T20:36:24.722Z,1.97
2023-08-08T20:38:51.236Z,2.53
2023-08-08T20:41:17.836Z,2.10
2023-08-08T20:43:44.460Z,2.43
2023-08-08T20:46:13.541Z,2.00
2023-08-08T20:48:40.131Z,1.70
2023-08-08T20:51:06.797Z,2.00
2023-08-08T20:53:33.351Z,2.10
2023-08-08T20:56:01.451Z,2.30
2023-08-08T20:58:28.153Z,2.30
2023-08-08T21:00:54.835Z,2.37
2023-08-08T21:03:21.446Z,2.30
2023-08-08T21:05:48.094Z,1.97
2023-08-08T21:08:14.729Z,2.20
2023-08-08T21:10:41.396Z,2.03
2023-08-08T21:13:08.137Z,2.30
2023-08-08T21:15:37.084Z,2.33
2023-08-08T21:18:03.932Z,2.13
2023-08-08T21:20:30.639Z,2.37
2023-08-08T21:22:58.295Z,2.70
2023-08-08T21:25:25.058Z,2.00
2023-08-08T21:27:51.748Z,2.20
2023-08-08T21:30:18.501Z,2.07
2023-08-08T21:32:45.117Z,2.00
2023-08-08T21:35:11.636Z,2.00
2023-08-08T21:37:39.611Z,2.13
2023-08-08T21:40:07.206Z,2.80
2023-08-08T21:42:33.755Z,2.00
2023-08-08T21:45:00.871Z,2.10
2023-08-08T21:47:27.467Z,2.00
2023-08-08T21:49:54.197Z,2.43
2023-08-08T21:52:20.754Z,2.40
2023-08-08T21:54:47.330Z,2.20
2023-08-08T21:57:13.908Z,2.50
2023-08-08T21:59:40.762Z,2.10
2023-08-08T22:02:07.395Z,2.50
2023-08-08T22:04:35.024Z,2.23
2023-08-08T22:07:03.840Z,2.10
2023-08-08T22:09:30.650Z,2.27
2023-08-08T22:11:57.316Z,1.97
2023-08-08T22:14:25.121Z,3.00
2023-08-08T22:16:51.741Z,2.50
2023-08-08T22:19:18.297Z,3.90
2023-08-08T22:21:44.930Z,2.30
2023-08-08T22:24:11.461Z,2.47
2023-08-08T22:26:38.064Z,2.50
2023-08-08T22:29:04.594Z,2.20
2023-08-08T22:31:31.063Z,2.40
2023-08-08T22:33:59.065Z,2.10
2023-08-08T22:36:25.586Z,2.03
2023-08-08T22:38:52.163Z,2.33
2023-08-08T22:41:18.761Z,2.00
2023-08-08T22:43:45.830Z,2.37
2023-08-08T22:46:12.354Z,2.40
2023-08-08T22:48:39.070Z,2.60
2023-08-08T22:51:05.611Z,2.90
2023-08-08T22:53:32.150Z,3.20
2023-08-08T22:55:58.697Z,3.03
2023-08-08T22:58:25.469Z,2.93
2023-08-08T23:00:51.982Z,3.50
2023-08-08T23:03:18.649Z,2.87
2023-08-08T23:05:45.405Z,2.70
2023-08-08T23:08:11.934Z,3.20
2023-08-08T23:10:38.451Z,2.73
2023-08-08T23:13:04.986Z,2.90
2023-08-08T23:15:31.603Z,2.73
2023-08-08T23:17:58.168Z,2.17
2023-08-08T23:20:24.839Z,2.70
2023-08-08T23:22:51.425Z,2.70
2023-08-08T23:25:19.167Z,2.80
2023-08-08T23:27:46.481Z,2.70
2023-08-08T23:30:13.049Z,2.77
2023-08-08T23:32:42.379Z,3.20
2023-08-08T23:35:13.695Z,3.23
2023-08-08T23:37:40.323Z,2.83
2023-08-08T23:40:10.047Z,2.70
2023-08-08T23:42:37.412Z,2.60
2023-08-08T23:45:06.701Z,2.77
2023-08-08T23:47:33.445Z,2.50
2023-08-08T23:50:00.439Z,2.80
2023-08-08T23:52:27.038Z,2.60
2023-08-08T23:54:53.719Z,2.70
2023-08-08T23:57:20.208Z,2.30
2023-08-08T23:59:46.940Z,2.50
